sensor_id;sensor_type;location;lat;lon;timestamp;pressure;altitude;pressure_sealevel;temperature;humidity
10652;BME280;5374;42.742;23.266;2023-03-23T00:00:14;95443.28;;;5.96;100.00
10652;BME280;5374;42.742;23.266;2023-03-23T00:03:02;95441.66;;;5.95;100.00
10652;BME280;5374;42.742;23.266;2023-03-23T00:05:50;95439.03;;;5.95;100.00
10652;BME280;5374;42.742;23.266;2023-03-23T00:08:38;95437.41;;;5.94;100.00
10652;BME280;5374;42.742;23.266;2023-03-23T00:11:32;95438.88;;;5.90;100.00
10652;BME280;5374;42.742;23.266;2023-03-23T00:14:19;95438.44;;;5.93;100.00
10652;BME280;5374;42.742;23.266;2023-03-23T00:17:08;95430.00;;;5.84;100.00
10652;BME280;5374;42.742;23.266;2023-03-23T00:20:00;95428.75;;;5.87;100.00
10652;BME280;5374;42.742;23.266;2023-03-23T00:22:50;95438.88;;;5.90;100.00
10652;BME280;5374;42.742;23.266;2023-03-23T00:25:37;95436.22;;;5.90;100.00
10652;BME280;5374;42.742;23.266;2023-03-23T00:28:28;95441.50;;;5.90;100.00
10652;BME280;5374;42.742;23.266;2023-03-23T00:31:15;95448.38;;;5.91;100.00
10652;BME280;5374;42.742;23.266;2023-03-23T00:34:03;95447.22;;;5.87;100.00
10652;BME280;5374;42.742;23.266;2023-03-23T00:36:52;95440.88;;;5.88;100.00
10652;BME280;5374;42.742;23.266;2023-03-23T00:39:44;95418.41;;;5.67;100.00
10652;BME280;5374;42.742;23.266;2023-03-23T00:42:31;95445.16;;;5.89;100.00
10652;BME280;5374;42.742;23.266;2023-03-23T00:45:25;95448.59;;;5.90;100.00
10652;BME280;5374;42.742;23.266;2023-03-23T00:48:13;95450.63;;;5.88;100.00
10652;BME280;5374;42.742;23.266;2023-03-23T00:51:01;95451.03;;;5.91;100.00
10652;BME280;5374;42.742;23.266;2023-03-23T00:53:51;95455.69;;;5.89;100.00
10652;BME280;5374;42.742;23.266;2023-03-23T00:56:38;95444.19;;;5.83;100.00
10652;BME280;5374;42.742;23.266;2023-03-23T00:59:26;95461.34;;;5.93;100.00
10652;BME280;5374;42.742;23.266;2023-03-23T01:02:14;95455.88;;;5.88;100.00
10652;BME280;5374;42.742;23.266;2023-03-23T01:05:02;95463.38;;;5.91;100.00
10652;BME280;5374;42.742;23.266;2023-03-23T01:07:49;95460.91;;;5.96;100.00
10652;BME280;5374;42.742;23.266;2023-03-23T01:10:36;95461.16;;;5.88;100.00
10652;BME280;5374;42.742;23.266;2023-03-23T01:13:24;95463.44;;;5.84;100.00
10652;BME280;5374;42.742;23.266;2023-03-23T01:16:11;95459.22;;;5.83;100.00
10652;BME280;5374;42.742;23.266;2023-03-23T01:19:00;95462.56;;;5.72;100.00
10652;BME280;5374;42.742;23.266;2023-03-23T01:21:47;95458.25;;;5.77;100.00
10652;BME280;5374;42.742;23.266;2023-03-23T01:24:34;95459.91;;;5.72;100.00
10652;BME280;5374;42.742;23.266;2023-03-23T01:27:21;95465.41;;;5.70;100.00
10652;BME280;5374;42.742;23.266;2023-03-23T01:30:11;95451.50;;;5.63;100.00
10652;BME280;5374;42.742;23.266;2023-03-23T01:32:59;95452.00;;;5.72;100.00
10652;BME280;5374;42.742;23.266;2023-03-23T01:35:47;95448.72;;;5.76;100.00
10652;BME280;5374;42.742;23.266;2023-03-23T01:38:34;95444.69;;;5.74;100.00
10652;BME280;5374;42.742;23.266;2023-03-23T01:41:22;95449.97;;;5.74;100.00
10652;BME280;5374;42.742;23.266;2023-03-23T01:47:29;95445.94;;;5.71;100.00
10652;BME280;5374;42.742;23.266;2023-03-23T01:50:17;95428.97;;;5.67;100.00
10652;BME280;5374;42.742;23.266;2023-03-23T01:53:08;95424.22;;;5.58;100.00
10652;BME280;5374;42.742;23.266;2023-03-23T01:55:58;95435.03;;;5.68;100.00
10652;BME280;5374;42.742;23.266;2023-03-23T01:58:47;95436.28;;;5.65;100.00
10652;BME280;5374;42.742;23.266;2023-03-23T02:01:34;95442.81;;;5.63;100.00
10652;BME280;5374;42.742;23.266;2023-03-23T02:04:24;95442.44;;;5.59;100.00
10652;BME280;5374;42.742;23.266;2023-03-23T02:07:12;95448.50;;;5.60;100.00
10652;BME280;5374;42.742;23.266;2023-03-23T02:10:01;95451.94;;;5.60;100.00
10652;BME280;5374;42.742;23.266;2023-03-23T02:12:48;95437.22;;;5.53;100.00
10652;BME280;5374;42.742;23.266;2023-03-23T02:15:44;95428.50;;;5.52;100.00
10652;BME280;5374;42.742;23.266;2023-03-23T02:18:40;95446.09;;;5.58;100.00
10652;BME280;5374;42.742;23.266;2023-03-23T02:21:47;95444.47;;;5.57;100.00
10652;BME280;5374;42.742;23.266;2023-03-23T02:24:55;95450.19;;;5.54;100.00
10652;BME280;5374;42.742;23.266;2023-03-23T02:31:22;95442.13;;;5.49;100.00
10652;BME280;5374;42.742;23.266;2023-03-23T02:34:18;95455.50;;;5.47;100.00
10652;BME280;5374;42.742;23.266;2023-03-23T02:37:10;95448.84;;;5.45;100.00
10652;BME280;5374;42.742;23.266;2023-03-23T02:40:02;95452.94;;;5.41;100.00
10652;BME280;5374;42.742;23.266;2023-03-23T02:42:55;95447.31;;;5.37;100.00
10652;BME280;5374;42.742;23.266;2023-03-23T02:45:45;95446.13;;;5.33;100.00
10652;BME280;5374;42.742;23.266;2023-03-23T02:48:33;95455.25;;;5.31;100.00
10652;BME280;5374;42.742;23.266;2023-03-23T02:51:22;95446.47;;;5.19;100.00
10652;BME280;5374;42.742;23.266;2023-03-23T02:54:11;95464.81;;;5.25;100.00
10652;BME280;5374;42.742;23.266;2023-03-23T02:56:59;95463.06;;;5.19;100.00
10652;BME280;5374;42.742;23.266;2023-03-23T02:59:47;95470.28;;;5.24;100.00
10652;BME280;5374;42.742;23.266;2023-03-23T03:02:35;95466.72;;;5.18;100.00
10652;BME280;5374;42.742;23.266;2023-03-23T03:05:33;95474.66;;;5.11;100.00
10652;BME280;5374;42.742;23.266;2023-03-23T03:08:26;95475.25;;;5.13;100.00
10652;BME280;5374;42.742;23.266;2023-03-23T03:11:18;95476.47;;;5.11;100.00
10652;BME280;5374;42.742;23.266;2023-03-23T03:14:11;95475.13;;;5.02;100.00
10652;BME280;5374;42.742;23.266;2023-03-23T03:17:05;95487.84;;;5.05;100.00
10652;BME280;5374;42.742;23.266;2023-03-23T03:19:59;95473.78;;;4.93;100.00
10652;BME280;5374;42.742;23.266;2023-03-23T03:22:58;95487.53;;;4.95;100.00
10652;BME280;5374;42.742;23.266;2023-03-23T03:25:48;95487.09;;;4.98;100.00
10652;BME280;5374;42.742;23.266;2023-03-23T03:28:39;95493.53;;;5.02;100.00
10652;BME280;5374;42.742;23.266;2023-03-23T03:31:29;95500.00;;;5.06;100.00
10652;BME280;5374;42.742;23.266;2023-03-23T03:34:24;95491.94;;;5.01;100.00
10652;BME280;5374;42.742;23.266;2023-03-23T03:37:11;95496.44;;;4.94;100.00
10652;BME280;5374;42.742;23.266;2023-03-23T03:39:59;95495.69;;;4.87;100.00
10652;BME280;5374;42.742;23.266;2023-03-23T03:42:47;95475.88;;;4.77;100.00
10652;BME280;5374;42.742;23.266;2023-03-23T03:45:34;95504.75;;;4.91;100.00
10652;BME280;5374;42.742;23.266;2023-03-23T03:48:22;95498.31;;;4.87;100.00
10652;BME280;5374;42.742;23.266;2023-03-23T03:51:09;95491.25;;;4.80;100.00
10652;BME280;5374;42.742;23.266;2023-03-23T03:53:56;95494.06;;;4.86;100.00
10652;BME280;5374;42.742;23.266;2023-03-23T03:56:43;95502.97;;;4.85;100.00
10652;BME280;5374;42.742;23.266;2023-03-23T03:59:32;95509.06;;;4.78;100.00
10652;BME280;5374;42.742;23.266;2023-03-23T04:02:21;95499.97;;;4.74;100.00
10652;BME280;5374;42.742;23.266;2023-03-23T04:05:08;95486.50;;;4.64;100.00
10652;BME280;5374;42.742;23.266;2023-03-23T04:07:56;95482.47;;;4.62;100.00
10652;BME280;5374;42.742;23.266;2023-03-23T04:10:47;95486.72;;;4.63;100.00
10652;BME280;5374;42.742;23.266;2023-03-23T04:13:34;95491.34;;;4.67;100.00
10652;BME280;5374;42.742;23.266;2023-03-23T04:16:23;95488.56;;;4.56;100.00
10652;BME280;5374;42.742;23.266;2023-03-23T04:19:11;95494.78;;;4.68;100.00
10652;BME280;5374;42.742;23.266;2023-03-23T04:21:59;95498.81;;;4.70;100.00
10652;BME280;5374;42.742;23.266;2023-03-23T04:24:47;95497.81;;;4.71;100.00
10652;BME280;5374;42.742;23.266;2023-03-23T04:27:34;95495.41;;;4.63;100.00
10652;BME280;5374;42.742;23.266;2023-03-23T04:30:23;95501.88;;;4.67;100.00
10652;BME280;5374;42.742;23.266;2023-03-23T04:33:12;95502.69;;;4.61;100.00
10652;BME280;5374;42.742;23.266;2023-03-23T04:36:00;95487.75;;;4.55;100.00
10652;BME280;5374;42.742;23.266;2023-03-23T04:38:48;95507.53;;;4.64;100.00
10652;BME280;5374;42.742;23.266;2023-03-23T04:41:40;95508.34;;;4.65;100.00
10652;BME280;5374;42.742;23.266;2023-03-23T04:44:27;95506.94;;;4.62;100.00
10652;BME280;5374;42.742;23.266;2023-03-23T04:47:14;95505.50;;;4.66;100.00
10652;BME280;5374;42.742;23.266;2023-03-23T04:50:05;95510.56;;;4.68;100.00
10652;BME280;5374;42.742;23.266;2023-03-23T04:52:52;95508.31;;;4.71;100.00
10652;BME280;5374;42.742;23.266;2023-03-23T04:55:42;95515.56;;;4.76;100.00
10652;BME280;5374;42.742;23.266;2023-03-23T04:58:29;95515.19;;;4.72;100.00
10652;BME280;5374;42.742;23.266;2023-03-23T05:01:19;95524.44;;;4.81;100.00
10652;BME280;5374;42.742;23.266;2023-03-23T05:04:06;95517.13;;;4.84;100.00
10652;BME280;5374;42.742;23.266;2023-03-23T05:06:55;95521.78;;;4.88;100.00
10652;BME280;5374;42.742;23.266;2023-03-23T05:09:46;95525.75;;;4.97;100.00
10652;BME280;5374;42.742;23.266;2023-03-23T05:12:34;95523.84;;;5.11;100.00
10652;BME280;5374;42.742;23.266;2023-03-23T05:15:21;95533.31;;;5.19;100.00
10652;BME280;5374;42.742;23.266;2023-03-23T05:18:08;95526.16;;;5.26;100.00
10652;BME280;5374;42.742;23.266;2023-03-23T05:20:59;95524.88;;;5.35;100.00
10652;BME280;5374;42.742;23.266;2023-03-23T05:23:48;95534.78;;;5.39;100.00
10652;BME280;5374;42.742;23.266;2023-03-23T05:26:40;95540.34;;;5.49;100.00
10652;BME280;5374;42.742;23.266;2023-03-23T05:29:27;95539.34;;;5.50;100.00
10652;BME280;5374;42.742;23.266;2023-03-23T05:32:16;95538.16;;;5.46;100.00
10652;BME280;5374;42.742;23.266;2023-03-23T05:35:05;95538.66;;;5.62;100.00
10652;BME280;5374;42.742;23.266;2023-03-23T05:37:53;95537.97;;;5.66;100.00
10652;BME280;5374;42.742;23.266;2023-03-23T05:40:42;95547.34;;;5.87;100.00
10652;BME280;5374;42.742;23.266;2023-03-23T05:43:30;95536.97;;;5.92;100.00
10652;BME280;5374;42.742;23.266;2023-03-23T05:46:17;95550.31;;;6.15;100.00
10652;BME280;5374;42.742;23.266;2023-03-23T05:49:04;95555.59;;;6.34;100.00
10652;BME280;5374;42.742;23.266;2023-03-23T05:51:53;95547.59;;;6.59;100.00
10652;BME280;5374;42.742;23.266;2023-03-23T05:54:40;95551.19;;;6.94;100.00
10652;BME280;5374;42.742;23.266;2023-03-23T05:57:29;95557.94;;;7.85;100.00
10652;BME280;5374;42.742;23.266;2023-03-23T06:00:17;95554.94;;;8.16;100.00
10652;BME280;5374;42.742;23.266;2023-03-23T06:03:08;95554.59;;;8.36;100.00
10652;BME280;5374;42.742;23.266;2023-03-23T06:05:55;95561.66;;;8.71;100.00
10652;BME280;5374;42.742;23.266;2023-03-23T06:08:43;95561.38;;;9.24;100.00
10652;BME280;5374;42.742;23.266;2023-03-23T06:11:31;95554.81;;;10.49;100.00
10652;BME280;5374;42.742;23.266;2023-03-23T06:14:20;95570.50;;;11.70;100.00
10652;BME280;5374;42.742;23.266;2023-03-23T06:17:07;95551.97;;;14.38;100.00
10652;BME280;5374;42.742;23.266;2023-03-23T06:19:54;95571.53;;;15.67;97.15
10652;BME280;5374;42.742;23.266;2023-03-23T06:22:42;95562.00;;;18.92;55.52
10652;BME280;5374;42.742;23.266;2023-03-23T06:25:30;95561.22;;;22.49;43.62
10652;BME280;5374;42.742;23.266;2023-03-23T06:28:18;95573.94;;;25.25;35.72
10652;BME280;5374;42.742;23.266;2023-03-23T06:31:08;95577.75;;;27.43;31.75
10652;BME280;5374;42.742;23.266;2023-03-23T06:33:56;95575.22;;;29.01;28.58
10652;BME280;5374;42.742;23.266;2023-03-23T06:36:44;95587.16;;;30.44;26.77
10652;BME280;5374;42.742;23.266;2023-03-23T06:39:31;95521.41;;;30.85;25.46
10652;BME280;5374;42.742;23.266;2023-03-23T06:42:18;95575.25;;;31.99;24.69
10652;BME280;5374;42.742;23.266;2023-03-23T06:45:06;95591.19;;;32.41;24.25
10652;BME280;5374;42.742;23.266;2023-03-23T06:47:55;95581.91;;;32.78;23.39
10652;BME280;5374;42.742;23.266;2023-03-23T06:50:42;95565.59;;;32.26;23.49
10652;BME280;5374;42.742;23.266;2023-03-23T06:53:30;95581.50;;;31.01;25.08
10652;BME280;5374;42.742;23.266;2023-03-23T06:56:17;95586.78;;;29.89;25.90
10652;BME280;5374;42.742;23.266;2023-03-23T06:59:04;95594.28;;;28.55;28.04
10652;BME280;5374;42.742;23.266;2023-03-23T07:01:51;95584.78;;;27.44;29.49
10652;BME280;5374;42.742;23.266;2023-03-23T07:04:40;95580.56;;;26.40;30.67
10652;BME280;5374;42.742;23.266;2023-03-23T07:07:27;95582.75;;;25.09;31.22
10652;BME280;5374;42.742;23.266;2023-03-23T07:10:15;95579.28;;;24.22;33.01
10652;BME280;5374;42.742;23.266;2023-03-23T07:13:02;95566.72;;;23.55;35.58
10652;BME280;5374;42.742;23.266;2023-03-23T07:15:49;95571.59;;;23.03;36.52
10652;BME280;5374;42.742;23.266;2023-03-23T07:18:36;95569.34;;;22.41;37.67
10652;BME280;5374;42.742;23.266;2023-03-23T07:21:25;95585.00;;;22.09;38.11
10652;BME280;5374;42.742;23.266;2023-03-23T07:24:12;95585.75;;;21.58;38.84
10652;BME280;5374;42.742;23.266;2023-03-23T07:27:00;95579.72;;;21.13;40.34
10652;BME280;5374;42.742;23.266;2023-03-23T07:29:48;95556.31;;;20.60;40.55
10652;BME280;5374;42.742;23.266;2023-03-23T07:32:35;95562.59;;;20.47;41.40
10652;BME280;5374;42.742;23.266;2023-03-23T07:35:23;95572.28;;;20.26;42.91
10652;BME280;5374;42.742;23.266;2023-03-23T07:38:11;95576.38;;;20.23;44.08
10652;BME280;5374;42.742;23.266;2023-03-23T07:40:59;95579.78;;;19.93;43.20
10652;BME280;5374;42.742;23.266;2023-03-23T07:43:46;95573.47;;;19.75;43.70
10652;BME280;5374;42.742;23.266;2023-03-23T07:46:34;95560.94;;;19.57;44.62
10652;BME280;5374;42.742;23.266;2023-03-23T07:49:21;95559.97;;;19.39;44.84
10652;BME280;5374;42.742;23.266;2023-03-23T07:52:08;95548.25;;;19.43;44.86
10652;BME280;5374;42.742;23.266;2023-03-23T07:54:57;95579.31;;;19.41;46.11
10652;BME280;5374;42.742;23.266;2023-03-23T07:57:47;95572.44;;;19.21;47.16
10652;BME280;5374;42.742;23.266;2023-03-23T08:00:35;95575.34;;;19.11;45.87
10652;BME280;5374;42.742;23.266;2023-03-23T08:03:22;95556.03;;;18.95;48.01
10652;BME280;5374;42.742;23.266;2023-03-23T08:06:09;95565.78;;;18.91;47.14
10652;BME280;5374;42.742;23.266;2023-03-23T08:08:56;95571.34;;;19.08;47.67
10652;BME280;5374;42.742;23.266;2023-03-23T08:11:46;95565.78;;;19.05;47.26
10652;BME280;5374;42.742;23.266;2023-03-23T08:14:34;95575.56;;;19.15;47.09
10652;BME280;5374;42.742;23.266;2023-03-23T08:17:21;95577.50;;;19.23;48.00
10652;BME280;5374;42.742;23.266;2023-03-23T08:20:10;95563.25;;;19.22;49.06
10652;BME280;5374;42.742;23.266;2023-03-23T08:22:58;95562.53;;;18.16;50.34
10652;BME280;5374;42.742;23.266;2023-03-23T08:25:48;95561.63;;;17.88;53.21
10652;BME280;5374;42.742;23.266;2023-03-23T08:28:37;95564.59;;;18.05;51.80
10652;BME280;5374;42.742;23.266;2023-03-23T08:31:24;95557.38;;;18.19;50.53
10652;BME280;5374;42.742;23.266;2023-03-23T08:34:12;95561.97;;;18.32;48.99
10652;BME280;5374;42.742;23.266;2023-03-23T08:37:01;95561.63;;;18.53;49.73
10652;BME280;5374;42.742;23.266;2023-03-23T08:39:51;95564.56;;;18.70;48.44
10652;BME280;5374;42.742;23.266;2023-03-23T08:42:40;95562.66;;;18.24;48.26
10652;BME280;5374;42.742;23.266;2023-03-23T08:45:29;95570.66;;;18.29;48.97
10652;BME280;5374;42.742;23.266;2023-03-23T08:48:17;95560.22;;;18.41;47.20
10652;BME280;5374;42.742;23.266;2023-03-23T08:51:07;95559.38;;;18.60;45.31
10652;BME280;5374;42.742;23.266;2023-03-23T08:53:54;95556.56;;;18.19;44.33
10652;BME280;5374;42.742;23.266;2023-03-23T08:56:41;95553.00;;;17.91;47.21
10652;BME280;5374;42.742;23.266;2023-03-23T08:59:29;95557.53;;;18.41;46.20
10652;BME280;5374;42.742;23.266;2023-03-23T09:02:17;95564.22;;;18.58;44.86
10652;BME280;5374;42.742;23.266;2023-03-23T09:05:05;95558.50;;;17.99;45.49
10652;BME280;5374;42.742;23.266;2023-03-23T09:07:55;95558.31;;;18.28;44.01
10652;BME280;5374;42.742;23.266;2023-03-23T09:10:44;95556.50;;;17.72;45.60
10652;BME280;5374;42.742;23.266;2023-03-23T09:13:31;95551.31;;;17.95;46.46
10652;BME280;5374;42.742;23.266;2023-03-23T09:16:18;95560.88;;;18.33;45.00
10652;BME280;5374;42.742;23.266;2023-03-23T09:19:11;95543.53;;;17.93;45.92
10652;BME280;5374;42.742;23.266;2023-03-23T09:22:01;95556.50;;;18.37;44.38
10652;BME280;5374;42.742;23.266;2023-03-23T09:24:49;95535.56;;;18.21;43.17
10652;BME280;5374;42.742;23.266;2023-03-23T09:27:37;95551.56;;;18.44;43.51
10652;BME280;5374;42.742;23.266;2023-03-23T09:30:26;95540.81;;;18.44;45.24
10652;BME280;5374;42.742;23.266;2023-03-23T09:33:14;95544.53;;;18.62;46.05
10652;BME280;5374;42.742;23.266;2023-03-23T09:36:04;95547.78;;;17.81;44.85
10652;BME280;5374;42.742;23.266;2023-03-23T09:38:53;95534.44;;;18.08;45.59
10652;BME280;5374;42.742;23.266;2023-03-23T09:42:06;95538.47;;;17.54;44.74
10652;BME280;5374;42.742;23.266;2023-03-23T09:45:06;95537.25;;;17.65;46.14
10652;BME280;5374;42.742;23.266;2023-03-23T09:48:13;95540.31;;;18.10;44.01
10652;BME280;5374;42.742;23.266;2023-03-23T09:51:17;95537.63;;;18.10;43.86
10652;BME280;5374;42.742;23.266;2023-03-23T09:54:13;95534.28;;;18.32;43.04
10652;BME280;5374;42.742;23.266;2023-03-23T09:57:03;95525.53;;;18.26;42.69
10652;BME280;5374;42.742;23.266;2023-03-23T09:59:54;95538.31;;;18.02;44.16
10652;BME280;5374;42.742;23.266;2023-03-23T10:02:48;95537.91;;;17.57;45.10
10652;BME280;5374;42.742;23.266;2023-03-23T10:05:40;95529.16;;;16.66;46.13
10652;BME280;5374;42.742;23.266;2023-03-23T10:08:31;95531.84;;;16.61;47.10
10652;BME280;5374;42.742;23.266;2023-03-23T10:11:28;95526.47;;;17.09;50.16
10652;BME280;5374;42.742;23.266;2023-03-23T10:14:35;95510.47;;;17.60;44.90
10652;BME280;5374;42.742;23.266;2023-03-23T10:17:45;95521.56;;;17.35;45.82
10652;BME280;5374;42.742;23.266;2023-03-23T10:20:42;95521.28;;;17.55;45.57
10652;BME280;5374;42.742;23.266;2023-03-23T10:23:41;95529.19;;;17.28;45.05
10652;BME280;5374;42.742;23.266;2023-03-23T10:26:42;95510.84;;;17.54;44.68
10652;BME280;5374;42.742;23.266;2023-03-23T10:29:34;95521.66;;;17.67;46.18
10652;BME280;5374;42.742;23.266;2023-03-23T10:32:39;95515.41;;;17.53;43.95
10652;BME280;5374;42.742;23.266;2023-03-23T10:35:31;95514.22;;;17.40;44.69
10652;BME280;5374;42.742;23.266;2023-03-23T10:38:24;95513.53;;;17.72;44.52
10652;BME280;5374;42.742;23.266;2023-03-23T10:41:18;95519.44;;;17.88;43.01
10652;BME280;5374;42.742;23.266;2023-03-23T10:44:10;95521.97;;;17.98;43.15
10652;BME280;5374;42.742;23.266;2023-03-23T10:46:59;95505.28;;;18.15;45.57
10652;BME280;5374;42.742;23.266;2023-03-23T10:49:49;95507.66;;;18.03;44.35
10652;BME280;5374;42.742;23.266;2023-03-23T10:52:40;95501.47;;;17.51;43.42
10652;BME280;5374;42.742;23.266;2023-03-23T10:55:36;95486.94;;;17.52;43.97
10652;BME280;5374;42.742;23.266;2023-03-23T10:58:27;95499.00;;;17.73;44.14
10652;BME280;5374;42.742;23.266;2023-03-23T11:01:18;95496.13;;;18.02;42.99
10652;BME280;5374;42.742;23.266;2023-03-23T11:04:12;95488.19;;;17.79;43.72
10652;BME280;5374;42.742;23.266;2023-03-23T11:07:01;95494.22;;;18.03;43.01
10652;BME280;5374;42.742;23.266;2023-03-23T11:09:53;95492.56;;;18.21;44.69
10652;BME280;5374;42.742;23.266;2023-03-23T11:12:43;95492.56;;;18.21;43.29
10652;BME280;5374;42.742;23.266;2023-03-23T11:15:34;95491.19;;;18.37;41.85
10652;BME280;5374;42.742;23.266;2023-03-23T11:18:25;95473.88;;;18.29;43.22
10652;BME280;5374;42.742;23.266;2023-03-23T11:21:14;95485.00;;;18.36;43.56
10652;BME280;5374;42.742;23.266;2023-03-23T11:24:02;95474.97;;;18.28;43.50
10652;BME280;5374;42.742;23.266;2023-03-23T11:26:50;95478.75;;;18.55;43.26
10652;BME280;5374;42.742;23.266;2023-03-23T11:29:45;95471.81;;;17.94;44.18
10652;BME280;5374;42.742;23.266;2023-03-23T11:32:35;95468.88;;;17.01;46.92
10652;BME280;5374;42.742;23.266;2023-03-23T11:35:27;95461.34;;;17.41;45.60
10652;BME280;5374;42.742;23.266;2023-03-23T11:38:18;95453.84;;;17.75;43.79
10652;BME280;5374;42.742;23.266;2023-03-23T11:41:09;95470.28;;;17.18;44.45
10652;BME280;5374;42.742;23.266;2023-03-23T11:44:03;95442.97;;;17.48;44.66
10652;BME280;5374;42.742;23.266;2023-03-23T11:47:00;95454.72;;;17.52;44.52
10652;BME280;5374;42.742;23.266;2023-03-23T11:49:57;95443.06;;;17.43;44.05
10652;BME280;5374;42.742;23.266;2023-03-23T11:52:51;95448.13;;;17.44;46.03
10652;BME280;5374;42.742;23.266;2023-03-23T11:55:53;95425.63;;;17.59;44.21
10652;BME280;5374;42.742;23.266;2023-03-23T11:58:42;95438.09;;;17.69;43.86
10652;BME280;5374;42.742;23.266;2023-03-23T12:01:44;95441.88;;;17.68;43.08
10652;BME280;5374;42.742;23.266;2023-03-23T12:04:40;95437.72;;;17.75;43.83
10652;BME280;5374;42.742;23.266;2023-03-23T12:07:39;95424.22;;;17.81;43.95
10652;BME280;5374;42.742;23.266;2023-03-23T12:10:32;95429.53;;;18.13;44.04
10652;BME280;5374;42.742;23.266;2023-03-23T12:13:37;95420.28;;;18.19;43.05
10652;BME280;5374;42.742;23.266;2023-03-23T12:16:48;95413.72;;;18.25;42.60
10652;BME280;5374;42.742;23.266;2023-03-23T12:19:43;95420.16;;;18.10;42.69
10652;BME280;5374;42.742;23.266;2023-03-23T12:22:46;95424.47;;;18.25;42.65
10652;BME280;5374;42.742;23.266;2023-03-23T12:25:55;95426.88;;;18.27;41.81
10652;BME280;5374;42.742;23.266;2023-03-23T12:29:08;95417.31;;;18.07;42.86
10652;BME280;5374;42.742;23.266;2023-03-23T12:32:20;95414.91;;;18.19;41.72
10652;BME280;5374;42.742;23.266;2023-03-23T12:35:28;95413.91;;;18.15;43.12
10652;BME280;5374;42.742;23.266;2023-03-23T12:38:49;95402.97;;;18.25;41.84
10652;BME280;5374;42.742;23.266;2023-03-23T12:41:43;95399.78;;;18.23;41.97
10652;BME280;5374;42.742;23.266;2023-03-23T12:44:35;95412.34;;;18.28;42.77
10652;BME280;5374;42.742;23.266;2023-03-23T12:47:32;95407.94;;;18.04;41.64
10652;BME280;5374;42.742;23.266;2023-03-23T12:50:28;95404.41;;;17.76;43.21
10652;BME280;5374;42.742;23.266;2023-03-23T12:53:22;95368.44;;;17.59;42.86
10652;BME280;5374;42.742;23.266;2023-03-23T12:56:17;95335.50;;;17.53;42.31
10652;BME280;5374;42.742;23.266;2023-03-23T12:59:10;95390.91;;;17.82;42.03
10652;BME280;5374;42.742;23.266;2023-03-23T13:02:12;95392.88;;;17.90;43.04
10652;BME280;5374;42.742;23.266;2023-03-23T13:05:06;95389.97;;;17.72;43.72
10652;BME280;5374;42.742;23.266;2023-03-23T13:07:59;95392.00;;;18.08;42.89
10652;BME280;5374;42.742;23.266;2023-03-23T13:10:49;95379.56;;;17.85;42.83
10652;BME280;5374;42.742;23.266;2023-03-23T13:13:48;95400.13;;;17.75;43.69
10652;BME280;5374;42.742;23.266;2023-03-23T13:16:44;95386.94;;;18.06;42.63
10652;BME280;5374;42.742;23.266;2023-03-23T13:19:48;95380.06;;;18.14;42.00
10652;BME280;5374;42.742;23.266;2023-03-23T13:22:41;95385.22;;;17.83;41.63
10652;BME280;5374;42.742;23.266;2023-03-23T13:29:00;95369.66;;;17.66;42.05
10652;BME280;5374;42.742;23.266;2023-03-23T13:31:50;95367.19;;;17.70;42.85
10652;BME280;5374;42.742;23.266;2023-03-23T13:34:40;95366.50;;;17.92;42.15
10652;BME280;5374;42.742;23.266;2023-03-23T13:37:29;95367.41;;;17.87;42.82
10652;BME280;5374;42.742;23.266;2023-03-23T13:40:24;95340.75;;;17.77;42.26
10652;BME280;5374;42.742;23.266;2023-03-23T13:43:13;95362.31;;;17.86;41.80
10652;BME280;5374;42.742;23.266;2023-03-23T13:46:28;95365.69;;;17.45;42.35
10652;BME280;5374;42.742;23.266;2023-03-23T13:49:19;95349.69;;;17.40;43.23
10652;BME280;5374;42.742;23.266;2023-03-23T13:52:17;95357.13;;;17.29;43.51
10652;BME280;5374;42.742;23.266;2023-03-23T13:55:19;95360.47;;;17.54;43.01
10652;BME280;5374;42.742;23.266;2023-03-23T13:58:21;95347.41;;;17.47;42.90
10652;BME280;5374;42.742;23.266;2023-03-23T14:01:14;95358.38;;;17.51;43.43
10652;BME280;5374;42.742;23.266;2023-03-23T14:04:07;95354.09;;;17.50;43.55
10652;BME280;5374;42.742;23.266;2023-03-23T14:07:09;95357.34;;;17.47;43.38
10652;BME280;5374;42.742;23.266;2023-03-23T14:10:06;95312.16;;;17.21;43.04
10652;BME280;5374;42.742;23.266;2023-03-23T14:12:55;95354.22;;;17.26;43.23
10652;BME280;5374;42.742;23.266;2023-03-23T14:15:45;95331.66;;;17.27;43.73
10652;BME280;5374;42.742;23.266;2023-03-23T14:18:51;95345.22;;;17.35;42.95
10652;BME280;5374;42.742;23.266;2023-03-23T14:21:42;95335.47;;;17.07;43.24
10652;BME280;5374;42.742;23.266;2023-03-23T14:24:40;95337.75;;;16.81;43.82
10652;BME280;5374;42.742;23.266;2023-03-23T14:27:28;95331.22;;;16.87;44.68
10652;BME280;5374;42.742;23.266;2023-03-23T14:30:18;95323.81;;;16.79;44.88
10652;BME280;5374;42.742;23.266;2023-03-23T14:33:09;95349.31;;;16.58;45.46
10652;BME280;5374;42.742;23.266;2023-03-23T14:36:00;95343.03;;;16.49;45.59
10652;BME280;5374;42.742;23.266;2023-03-23T14:38:59;95296.72;;;16.24;45.77
10652;BME280;5374;42.742;23.266;2023-03-23T14:41:49;95329.81;;;16.52;45.32
10652;BME280;5374;42.742;23.266;2023-03-23T14:44:41;95313.94;;;16.56;44.50
10652;BME280;5374;42.742;23.266;2023-03-23T14:47:32;95337.03;;;16.94;44.66
10652;BME280;5374;42.742;23.266;2023-03-23T14:50:27;95344.41;;;17.02;45.03
10652;BME280;5374;42.742;23.266;2023-03-23T14:53:19;95333.50;;;17.13;45.10
10652;BME280;5374;42.742;23.266;2023-03-23T14:56:12;95338.09;;;17.12;44.85
10652;BME280;5374;42.742;23.266;2023-03-23T14:59:04;95338.66;;;17.09;44.62
10652;BME280;5374;42.742;23.266;2023-03-23T15:01:54;95321.34;;;17.01;44.84
10652;BME280;5374;42.742;23.266;2023-03-23T15:04:44;95329.47;;;16.96;44.95
10652;BME280;5374;42.742;23.266;2023-03-23T15:07:35;95314.56;;;16.90;44.51
10652;BME280;5374;42.742;23.266;2023-03-23T15:10:24;95317.31;;;16.85;45.60
10652;BME280;5374;42.742;23.266;2023-03-23T15:13:16;95329.78;;;16.76;46.08
10652;BME280;5374;42.742;23.266;2023-03-23T15:16:06;95314.66;;;16.66;44.96